CheckWX is a tool to help pilots better visualize weather data.  It is not intended as a substitute for an official pre-flight weather briefing.

05:32:59 UTC

KOWB TAF
Owensboro-Daviess County Regional Airport
Owensboro, Kentucky, USA
KOWB 182324Z 1900/1924 29017G29KT P6SM BKN035 TEMPO 1900/1902 SCT035 FM190200 30015G25KT P6SM SCT040 BKN150 FM191500 30013G20KT P6SM SCT150

Jan-19@
00:00 UTC

Jan-19 @ 00:00 UTC

Jan-19@
02:00 UTC

Jan-19 @ 02:00 UTC

KOWB 182324Z 1900/1924 29017G29KT P6SM BKN035

Expired

Wind
  • 290° at 17 KTS
  • {Gusting to 29 KTS
Cloud Levels
  • Broken at 3,500' AGL

Jan-19@
00:00 UTC

Jan-19 @ 00:00 UTC

Jan-19@
02:00 UTC

Jan-19 @ 02:00 UTC

TEMPO 1900/1902 SCT035

Expired

Cloud Levels
  • Scattered at 3,500' AGL

Jan-19@
02:00 UTC

Jan-19 @ 02:00 UTC

Jan-19@
15:00 UTC

Jan-19 @ 15:00 UTC

FM190200 30015G25KT P6SM SCT040 BKN150

From

From Standard forecast or significant change

Wind
  • 300° at 15 KTS
  • {Gusting to 25 KTS
Cloud Levels
  • Scattered at 4,000' AGL
  • Broken at 15,000' AGL

Jan-19@
15:00 UTC

Jan-19 @ 15:00 UTC

Jan-20@
00:00 UTC

Jan-20 @ 00:00 UTC

FM191500 30013G20KT P6SM SCT150

From

From Standard forecast or significant change

Wind
  • 300° at 13 KTS
  • {Gusting to 20 KTS
Cloud Levels
  • Scattered at 15,000' AGL